Time;durP1;ratioP1;P1;durP2;ratioP2;P2;SDS_P1;SDS_P2;PMS_P1;PMS_P2;Temp;Humidity;BMP_temperature;BMP_pressure;BME280_temperature;BME280_humidity;BME280_pressure;Samples;Min_cycle;Max_cycle;Signal;HPM_P1;HPM_P2
2021/07/20 00:02:35;;;;;;;12.4;10.3;;;;;;;17.8;55.4;101900;;;;
2021/07/20 00:04:34;;;;;;;12.4;10.3;;;;;;;17.9;56.2;101900;;;;
2021/07/20 00:06:34;;;;;;;13.0;11.1;;;;;;;18.0;54.8;101900;;;;
2021/07/20 00:08:34;;;;;;;13.0;11.1;;;;;;;17.9;55.4;101900;;;;
2021/07/20 00:10:34;;;;;;;13.0;11.1;;;;;;;17.8;55.8;101900;;;;
2021/07/20 00:12:34;;;;;;;13.0;11.1;;;;;;;18.0;55.1;101900;;;;
2021/07/20 00:14:34;;;;;;;13.0;11.1;;;;;;;17.9;55.2;101900;;;;
2021/07/20 00:20:34;;;;;;;13.0;11.1;;;;;;;17.8;55.0;101900;;;;
2021/07/20 00:24:34;;;;;;;13.0;11.1;;;;;;;17.6;55.9;101900;;;;
2021/07/20 00:26:34;;;;;;;14.0;10.8;;;;;;;17.5;55.9;101900;;;;
2021/07/20 00:28:34;;;;;;;14.0;10.8;;;;;;;17.7;55.5;101900;;;;
2021/07/20 00:30:34;;;;;;;14.0;10.8;;;;;;;17.6;55.5;101900;;;;
2021/07/20 00:32:34;;;;;;;14.0;10.8;;;;;;;17.3;57.1;101910;;;;
2021/07/20 00:34:34;;;;;;;14.0;10.8;;;;;;;17.5;56.2;101900;;;;
2021/07/20 00:38:34;;;;;;;14.0;10.8;;;;;;;17.6;55.6;101910;;;;
2021/07/20 00:40:34;;;;;;;14.0;10.8;;;;;;;17.5;55.9;101910;;;;
2021/07/20 00:42:34;;;;;;;14.0;10.8;;;;;;;17.6;55.7;101910;;;;
2021/07/20 00:46:34;;;;;;;12.9;10.5;;;;;;;17.7;54.7;101920;;;;
2021/07/20 00:48:34;;;;;;;12.9;10.5;;;;;;;17.6;55.4;101910;;;;
2021/07/20 00:50:34;;;;;;;12.9;10.5;;;;;;;17.5;55.4;101910;;;;
2021/07/20 01:02:37;;;;;;;12.9;10.5;;;;;;;17.4;55.8;101910;;;;
2021/07/20 01:06:34;;;;;;;12.9;11.0;;;;;;;17.5;54.8;101900;;;;
2021/07/20 01:14:34;;;;;;;12.9;11.0;;;;;;;17.4;55.2;101910;;;;
2021/07/20 01:20:34;;;;;;;12.9;11.0;;;;;;;17.3;55.3;101900;;;;
2021/07/20 01:24:34;;;;;;;12.9;11.0;;;;;;;17.2;56.4;101900;;;;
2021/07/20 01:28:34;;;;;;;13.6;11.0;;;;;;;17.0;57.4;101890;;;;
2021/07/20 01:30:34;;;;;;;13.6;11.0;;;;;;;16.8;57.7;101890;;;;
2021/07/20 01:38:34;;;;;;;13.6;11.0;;;;;;;16.9;56.8;101890;;;;
2021/07/20 01:40:34;;;;;;;13.6;11.0;;;;;;;17.0;56.3;101890;;;;
2021/07/20 01:42:34;;;;;;;13.6;11.0;;;;;;;16.8;57.1;101890;;;;
2021/07/20 01:44:34;;;;;;;13.6;11.0;;;;;;;16.9;56.2;101900;;;;
2021/07/20 01:46:34;;;;;;;13.9;11.5;;;;;;;17.0;56.4;101900;;;;
2021/07/20 01:54:34;;;;;;;13.9;11.5;;;;;;;16.9;57.0;101900;;;;
2021/07/20 01:58:37;;;;;;;13.9;11.5;;;;;;;16.7;57.7;101900;;;;
2021/07/20 02:00:34;;;;;;;13.9;11.5;;;;;;;16.8;58.1;101900;;;;
2021/07/20 02:04:41;;;;;;;13.9;11.5;;;;;;;16.6;58.7;101900;;;;
2021/07/20 02:10:34;;;;;;;15.2;12.5;;;;;;;16.6;57.2;101900;;;;
2021/07/20 02:12:38;;;;;;;15.2;12.5;;;;;;;16.5;57.9;101900;;;;
2021/07/20 02:14:41;;;;;;;15.2;12.5;;;;;;;16.6;57.5;101910;;;;
2021/07/20 02:20:34;;;;;;;15.2;12.5;;;;;;;16.4;58.5;101910;;;;
2021/07/20 02:22:34;;;;;;;15.2;12.5;;;;;;;16.5;57.4;101900;;;;
2021/07/20 02:24:34;;;;;;;15.2;12.5;;;;;;;16.3;58.3;101900;;;;
2021/07/20 02:26:34;;;;;;;16.6;12.4;;;;;;;16.4;58.5;101900;;;;
2021/07/20 02:30:34;;;;;;;16.6;12.4;;;;;;;16.3;58.0;101900;;;;
2021/07/20 02:32:34;;;;;;;16.6;12.4;;;;;;;16.4;57.4;101900;;;;
2021/07/20 02:34:34;;;;;;;16.6;12.4;;;;;;;16.2;58.0;101900;;;;
2021/07/20 02:40:34;;;;;;;16.6;12.4;;;;;;;16.1;58.4;101900;;;;
2021/07/20 02:46:34;;;;;;;15.5;11.7;;;;;;;16.2;59.3;101900;;;;
2021/07/20 02:48:34;;;;;;;15.5;11.7;;;;;;;16.1;58.9;101900;;;;
2021/07/20 02:50:34;;;;;;;15.5;11.7;;;;;;;16.0;59.1;101900;;;;
2021/07/20 02:52:34;;;;;;;15.5;11.7;;;;;;;16.1;58.3;101890;;;;
2021/07/20 02:54:34;;;;;;;15.5;11.7;;;;;;;16.2;57.9;101900;;;;
2021/07/20 03:04:34;;;;;;;15.5;11.7;;;;;;;16.1;57.4;101900;;;;
2021/07/20 03:08:35;;;;;;;17.8;12.4;;;;;;;16.0;58.0;101900;;;;
2021/07/20 03:10:34;;;;;;;17.8;12.4;;;;;;;15.9;59.6;101900;;;;
2021/07/20 03:12:34;;;;;;;17.8;12.4;;;;;;;16.0;58.5;101910;;;;
2021/07/20 03:16:34;;;;;;;17.8;12.4;;;;;;;15.9;59.2;101910;;;;
2021/07/20 03:18:35;;;;;;;17.8;12.4;;;;;;;15.8;59.6;101910;;;;
2021/07/20 03:20:34;;;;;;;17.8;12.4;;;;;;;15.9;58.9;101920;;;;
2021/07/20 03:22:34;;;;;;;17.8;12.4;;;;;;;15.7;60.2;101920;;;;
2021/07/20 03:24:34;;;;;;;17.8;12.4;;;;;;;15.8;58.9;101920;;;;
2021/07/20 03:34:34;;;;;;;16.9;13.0;;;;;;;15.7;59.5;101910;;;;
2021/07/20 03:36:34;;;;;;;16.9;13.0;;;;;;;15.8;58.3;101910;;;;
2021/07/20 03:44:34;;;;;;;16.9;13.0;;;;;;;15.7;58.9;101910;;;;
2021/07/20 03:46:34;;;;;;;17.4;13.1;;;;;;;15.8;59.2;101910;;;;
2021/07/20 03:48:34;;;;;;;17.4;13.1;;;;;;;15.7;58.5;101910;;;;
2021/07/20 03:50:34;;;;;;;17.4;13.1;;;;;;;15.6;59.3;101910;;;;
2021/07/20 03:52:34;;;;;;;17.4;13.1;;;;;;;15.5;59.8;101910;;;;
2021/07/20 03:58:34;;;;;;;17.4;13.1;;;;;;;15.4;59.9;101910;;;;
2021/07/20 04:00:34;;;;;;;17.4;13.1;;;;;;;15.5;59.3;101910;;;;
2021/07/20 04:02:36;;;;;;;17.4;13.1;;;;;;;15.3;61.4;101910;;;;
2021/07/20 04:04:35;;;;;;;17.4;13.1;;;;;;;15.5;59.6;101910;;;;
2021/07/20 04:06:34;;;;;;;17.9;13.3;;;;;;;15.4;60.0;101910;;;;
2021/07/20 04:10:38;;;;;;;17.9;13.3;;;;;;;15.5;59.1;101910;;;;
2021/07/20 04:14:34;;;;;;;17.9;13.3;;;;;;;15.4;59.6;101910;;;;
2021/07/20 04:16:34;;;;;;;17.9;13.3;;;;;;;15.5;59.0;101910;;;;
2021/07/20 04:18:37;;;;;;;17.9;13.3;;;;;;;15.4;59.4;101900;;;;
2021/07/20 04:24:34;;;;;;;17.9;13.3;;;;;;;15.5;59.6;101910;;;;
2021/07/20 04:26:34;;;;;;;18.2;13.5;;;;;;;15.4;60.0;101910;;;;
2021/07/20 04:34:34;;;;;;;18.2;13.5;;;;;;;15.3;61.7;101910;;;;
2021/07/20 04:38:34;;;;;;;18.2;13.5;;;;;;;15.4;60.2;101910;;;;
2021/07/20 04:40:34;;;;;;;18.2;13.5;;;;;;;15.3;61.3;101910;;;;
2021/07/20 04:42:34;;;;;;;18.2;13.5;;;;;;;15.4;60.4;101910;;;;
2021/07/20 04:44:34;;;;;;;18.2;13.5;;;;;;;15.5;60.7;101910;;;;
2021/07/20 04:46:34;;;;;;;20.6;14.0;;;;;;;15.4;60.8;101920;;;;
2021/07/20 04:48:34;;;;;;;20.6;14.0;;;;;;;15.3;60.9;101920;;;;
2021/07/20 04:52:34;;;;;;;20.6;14.0;;;;;;;15.4;61.4;101920;;;;
2021/07/20 04:54:34;;;;;;;20.6;14.0;;;;;;;15.2;62.5;101920;;;;
2021/07/20 04:56:34;;;;;;;20.6;14.0;;;;;;;15.3;61.2;101920;;;;
2021/07/20 05:00:34;;;;;;;20.6;14.0;;;;;;;15.4;61.4;101920;;;;
2021/07/20 05:04:34;;;;;;;20.6;14.0;;;;;;;15.5;60.3;101920;;;;
2021/07/20 05:06:34;;;;;;;17.4;13.5;;;;;;;15.2;62.2;101920;;;;
2021/07/20 05:08:34;;;;;;;17.4;13.5;;;;;;;15.3;61.5;101930;;;;
2021/07/20 05:12:34;;;;;;;17.4;13.5;;;;;;;15.4;61.5;101930;;;;
2021/07/20 05:14:34;;;;;;;17.4;13.5;;;;;;;15.6;61.3;101930;;;;
2021/07/20 05:16:34;;;;;;;17.4;13.5;;;;;;;15.4;61.9;101930;;;;
2021/07/20 05:20:34;;;;;;;17.4;13.5;;;;;;;15.5;62.6;101940;;;;
2021/07/20 05:24:34;;;;;;;17.4;13.5;;;;;;;15.6;62.0;101940;;;;
2021/07/20 05:32:34;;;;;;;19.0;14.2;;;;;;;15.7;61.6;101930;;;;
2021/07/20 05:34:34;;;;;;;19.0;14.2;;;;;;;15.8;61.5;101930;;;;
2021/07/20 05:40:34;;;;;;;19.0;14.2;;;;;;;15.9;61.4;101930;;;;
2021/07/20 05:44:34;;;;;;;17.6;13.9;;;;;;;16.0;60.2;101930;;;;
2021/07/20 05:48:34;;;;;;;17.6;13.9;;;;;;;15.9;61.5;101930;;;;
2021/07/20 05:50:36;;;;;;;17.6;13.9;;;;;;;16.0;62.6;101940;;;;
2021/07/20 05:54:34;;;;;;;17.6;13.9;;;;;;;16.1;61.0;101940;;;;
2021/07/20 06:02:34;;;;;;;17.6;13.9;;;;;;;16.2;60.8;101940;;;;
2021/07/20 06:06:35;;;;;;;19.2;14.1;;;;;;;16.3;61.3;101940;;;;
2021/07/20 06:08:34;;;;;;;19.2;14.1;;;;;;;16.2;60.5;101950;;;;
2021/07/20 06:10:34;;;;;;;19.2;14.1;;;;;;;16.1;61.2;101950;;;;
2021/07/20 06:12:34;;;;;;;19.2;14.1;;;;;;;16.2;60.9;101950;;;;
2021/07/20 06:14:34;;;;;;;19.2;14.1;;;;;;;16.3;61.0;101950;;;;
2021/07/20 06:18:34;;;;;;;19.2;14.1;;;;;;;16.4;61.1;101950;;;;
2021/07/20 06:20:36;;;;;;;19.2;14.1;;;;;;;16.6;60.0;101950;;;;
2021/07/20 06:22:36;;;;;;;19.2;14.1;;;;;;;16.4;59.8;101950;;;;
2021/07/20 06:30:34;;;;;;;15.2;12.2;;;;;;;16.5;59.9;101960;;;;
2021/07/20 06:34:34;;;;;;;15.2;12.2;;;;;;;16.4;60.1;101960;;;;
2021/07/20 06:36:35;;;;;;;15.2;12.2;;;;;;;16.7;59.5;101960;;;;
2021/07/20 06:40:34;;;;;;;15.2;12.2;;;;;;;16.8;59.1;101960;;;;
2021/07/20 06:42:34;;;;;;;15.2;12.2;;;;;;;16.9;59.4;101960;;;;
2021/07/20 06:44:34;;;;;;;16.2;11.7;;;;;;;17.0;58.9;101960;;;;
2021/07/20 06:46:34;;;;;;;16.2;11.7;;;;;;;17.1;58.6;101970;;;;
2021/07/20 06:48:34;;;;;;;16.2;11.7;;;;;;;17.2;58.6;101970;;;;
2021/07/20 07:00:34;;;;;;;16.2;11.7;;;;;;;17.3;57.8;101970;;;;
2021/07/20 07:04:34;;;;;;;14.6;12.2;;;;;;;17.5;57.1;101970;;;;
2021/07/20 07:08:34;;;;;;;14.6;12.2;;;;;;;17.6;57.4;101960;;;;
2021/07/20 07:10:37;;;;;;;14.6;12.2;;;;;;;17.7;57.2;101970;;;;
2021/07/20 07:14:35;;;;;;;14.6;12.2;;;;;;;17.8;56.6;101970;;;;
2021/07/20 07:18:34;;;;;;;14.6;12.2;;;;;;;17.9;56.7;101970;;;;
2021/07/20 07:20:34;;;;;;;14.6;12.2;;;;;;;18.0;56.4;101970;;;;
2021/07/20 07:24:34;;;;;;;15.1;11.8;;;;;;;18.2;55.9;101970;;;;
2021/07/20 07:30:34;;;;;;;15.1;11.8;;;;;;;18.3;55.9;101970;;;;
2021/07/20 07:32:34;;;;;;;15.1;11.8;;;;;;;18.4;55.8;101970;;;;
2021/07/20 07:34:34;;;;;;;15.1;11.8;;;;;;;18.5;55.2;101970;;;;
2021/07/20 07:38:34;;;;;;;15.1;11.8;;;;;;;18.6;54.4;101980;;;;
2021/07/20 07:40:34;;;;;;;15.1;11.8;;;;;;;18.7;54.5;101980;;;;
2021/07/20 07:46:34;;;;;;;14.8;12.5;;;;;;;18.6;54.8;101980;;;;
2021/07/20 07:48:37;;;;;;;14.8;12.5;;;;;;;18.7;54.1;101980;;;;
2021/07/20 07:52:34;;;;;;;14.8;12.5;;;;;;;18.9;53.9;101980;;;;
2021/07/20 07:54:34;;;;;;;14.8;12.5;;;;;;;18.8;53.7;101980;;;;
2021/07/20 08:02:35;;;;;;;14.8;12.5;;;;;;;18.9;53.0;101980;;;;
2021/07/20 08:04:34;;;;;;;13.3;11.4;;;;;;;19.1;52.9;101980;;;;
2021/07/20 08:06:44;;;;;;;13.3;11.4;;;;;;;19.2;52.5;101980;;;;
2021/07/20 08:12:35;;;;;;;13.3;11.4;;;;;;;19.1;52.5;101980;;;;
2021/07/20 08:16:34;;;;;;;13.3;11.4;;;;;;;19.2;52.3;101980;;;;
2021/07/20 08:18:34;;;;;;;13.3;11.4;;;;;;;19.4;52.2;101980;;;;
2021/07/20 08:22:34;;;;;;;13.3;11.4;;;;;;;19.3;51.5;101980;;;;
2021/07/20 08:24:35;;;;;;;13.9;11.8;;;;;;;19.4;51.6;101980;;;;
2021/07/20 08:28:34;;;;;;;13.9;11.8;;;;;;;18.9;52.3;101980;;;;
2021/07/20 08:30:34;;;;;;;13.9;11.8;;;;;;;18.8;51.9;101980;;;;
2021/07/20 08:32:34;;;;;;;13.9;11.8;;;;;;;19.0;52.5;101980;;;;
2021/07/20 08:34:44;;;;;;;13.9;11.8;;;;;;;19.2;52.1;101980;;;;
2021/07/20 08:38:35;;;;;;;13.9;11.8;;;;;;;19.1;51.8;101980;;;;
2021/07/20 08:40:34;;;;;;;13.9;11.8;;;;;;;19.4;51.4;101980;;;;
2021/07/20 08:44:35;;;;;;;14.2;10.6;;;;;;;19.5;50.7;101990;;;;
2021/07/20 08:46:34;;;;;;;14.2;10.6;;;;;;;19.8;49.6;101990;;;;
2021/07/20 08:48:34;;;;;;;14.2;10.6;;;;;;;19.9;50.4;101980;;;;
2021/07/20 08:50:36;;;;;;;14.2;10.6;;;;;;;19.8;50.0;101980;;;;
2021/07/20 08:54:34;;;;;;;14.2;10.6;;;;;;;19.7;51.6;101980;;;;
2021/07/20 08:56:34;;;;;;;14.2;10.6;;;;;;;19.8;50.0;101980;;;;
2021/07/20 08:58:37;;;;;;;14.2;10.6;;;;;;;19.9;49.7;101980;;;;
2021/07/20 09:00:34;;;;;;;14.2;10.6;;;;;;;20.1;49.9;101980;;;;
2021/07/20 09:02:35;;;;;;;14.2;10.6;;;;;;;20.2;49.7;101980;;;;
2021/07/20 09:04:34;;;;;;;12.7;11.0;;;;;;;20.3;49.6;101980;;;;
2021/07/20 09:08:34;;;;;;;12.7;11.0;;;;;;;20.2;48.8;101990;;;;
2021/07/20 09:12:34;;;;;;;12.7;11.0;;;;;;;20.4;49.3;101980;;;;
2021/07/20 09:14:34;;;;;;;12.7;11.0;;;;;;;20.5;48.7;101980;;;;
2021/07/20 09:16:35;;;;;;;12.7;11.0;;;;;;;20.7;49.4;101980;;;;
2021/07/20 09:18:34;;;;;;;12.7;11.0;;;;;;;20.6;48.7;101980;;;;
2021/07/20 09:20:34;;;;;;;12.7;11.0;;;;;;;20.8;48.7;101980;;;;
2021/07/20 09:22:36;;;;;;;12.7;11.0;;;;;;;20.7;47.9;101980;;;;
2021/07/20 09:24:34;;;;;;;11.5;10.4;;;;;;;20.9;48.3;101980;;;;
2021/07/20 09:30:35;;;;;;;11.5;10.4;;;;;;;20.8;47.6;101990;;;;
2021/07/20 09:32:34;;;;;;;11.5;10.4;;;;;;;20.6;46.8;101990;;;;
2021/07/20 09:36:34;;;;;;;11.5;10.4;;;;;;;20.9;49.6;101990;;;;
2021/07/20 09:38:34;;;;;;;11.5;10.4;;;;;;;21.0;49.4;101990;;;;
2021/07/20 09:40:35;;;;;;;11.5;10.4;;;;;;;21.1;47.1;101990;;;;
2021/07/20 09:42:34;;;;;;;11.5;10.4;;;;;;;21.0;46.2;101980;;;;
2021/07/20 09:46:35;;;;;;;11.2;10.0;;;;;;;21.2;49.1;101980;;;;
2021/07/20 09:48:34;;;;;;;11.2;10.0;;;;;;;21.3;47.8;101980;;;;
2021/07/20 09:50:34;;;;;;;11.2;10.0;;;;;;;21.2;49.4;101980;;;;
2021/07/20 09:52:35;;;;;;;11.2;10.0;;;;;;;21.3;48.1;101980;;;;
2021/07/20 09:56:37;;;;;;;11.2;10.0;;;;;;;21.2;49.1;101980;;;;
2021/07/20 09:58:34;;;;;;;11.2;10.0;;;;;;;21.1;47.9;101980;;;;
2021/07/20 09:59:20;;;;;;;11.2;10.0;;;;;;;21.1;47.9;101980;;;;
2021/07/20 10:00:34;;;;;;;11.2;10.0;;;;;;;21.0;48.6;101980;;;;
2021/07/20 10:02:35;;;;;;;11.2;10.0;;;;;;;21.2;49.3;101980;;;;
2021/07/20 10:04:34;;;;;;;12.3;10.6;;;;;;;21.1;46.8;101970;;;;
2021/07/20 10:06:35;;;;;;;12.3;10.6;;;;;;;21.4;47.9;101980;;;;
2021/07/20 10:08:34;;;;;;;12.3;10.6;;;;;;;21.2;47.2;101970;;;;
2021/07/20 10:14:34;;;;;;;12.3;10.6;;;;;;;21.4;49.6;101980;;;;
2021/07/20 10:16:34;;;;;;;12.3;10.6;;;;;;;21.6;49.6;101980;;;;
2021/07/20 10:18:34;;;;;;;12.3;10.6;;;;;;;21.5;46.7;101980;;;;
2021/07/20 10:20:35;;;;;;;12.3;10.6;;;;;;;21.4;46.2;101980;;;;
2021/07/20 10:24:35;;;;;;;12.0;10.0;;;;;;;21.7;45.9;101970;;;;
2021/07/20 10:26:34;;;;;;;12.0;10.0;;;;;;;21.4;46.6;101970;;;;
2021/07/20 10:28:34;;;;;;;12.0;10.0;;;;;;;21.5;47.5;101970;;;;
2021/07/20 10:32:34;;;;;;;12.0;10.0;;;;;;;21.7;49.3;101960;;;;
2021/07/20 10:36:34;;;;;;;12.0;10.0;;;;;;;21.8;48.1;101970;;;;
2021/07/20 10:46:34;;;;;;;11.0;9.7;;;;;;;21.9;47.4;101970;;;;
2021/07/20 10:50:34;;;;;;;11.0;9.7;;;;;;;22.2;46.9;101960;;;;
2021/07/20 10:52:34;;;;;;;11.0;9.7;;;;;;;22.3;46.9;101960;;;;
2021/07/20 10:54:34;;;;;;;11.0;9.7;;;;;;;22.1;45.3;101960;;;;
2021/07/20 10:56:37;;;;;;;11.0;9.7;;;;;;;22.2;46.1;101960;;;;
2021/07/20 10:58:34;;;;;;;11.0;9.7;;;;;;;22.5;49.4;101950;;;;
2021/07/20 11:02:35;;;;;;;11.0;9.7;;;;;;;22.4;47.2;101950;;;;
2021/07/20 11:04:34;;;;;;;11.3;10.1;;;;;;;22.8;49.5;101960;;;;
2021/07/20 11:08:36;;;;;;;11.3;10.1;;;;;;;23.0;47.0;101960;;;;
2021/07/20 11:10:34;;;;;;;11.3;10.1;;;;;;;22.7;44.7;101960;;;;
2021/07/20 11:12:34;;;;;;;11.3;10.1;;;;;;;22.5;46.0;101960;;;;
2021/07/20 11:14:34;;;;;;;11.3;10.1;;;;;;;22.2;45.9;101960;;;;
2021/07/20 11:16:34;;;;;;;11.3;10.1;;;;;;;22.4;45.4;101950;;;;
2021/07/20 11:22:34;;;;;;;11.3;10.1;;;;;;;22.7;48.0;101950;;;;
2021/07/20 11:24:34;;;;;;;11.2;10.0;;;;;;;22.8;45.6;101950;;;;
2021/07/20 11:26:34;;;;;;;11.2;10.0;;;;;;;23.0;49.2;101950;;;;
2021/07/20 11:28:34;;;;;;;11.2;10.0;;;;;;;23.1;43.6;101950;;;;
2021/07/20 11:30:34;;;;;;;11.2;10.0;;;;;;;23.0;46.1;101950;;;;
2021/07/20 11:32:35;;;;;;;11.2;10.0;;;;;;;22.5;44.5;101950;;;;
2021/07/20 11:34:34;;;;;;;11.2;10.0;;;;;;;22.4;43.5;101960;;;;
2021/07/20 11:36:34;;;;;;;11.2;10.0;;;;;;;22.6;47.7;101950;;;;
2021/07/20 11:38:34;;;;;;;11.2;10.0;;;;;;;22.8;43.3;101950;;;;
2021/07/20 11:42:34;;;;;;;11.2;10.0;;;;;;;22.7;42.7;101950;;;;
2021/07/20 11:44:34;;;;;;;11.0;9.9;;;;;;;23.0;44.0;101950;;;;
2021/07/20 11:46:35;;;;;;;11.0;9.9;;;;;;;23.2;43.1;101950;;;;
2021/07/20 11:48:34;;;;;;;11.0;9.9;;;;;;;23.1;44.9;101950;;;;
2021/07/20 11:50:34;;;;;;;11.0;9.9;;;;;;;23.0;45.9;101940;;;;
2021/07/20 11:52:34;;;;;;;11.0;9.9;;;;;;;23.3;46.6;101950;;;;
2021/07/20 11:54:34;;;;;;;11.0;9.9;;;;;;;23.4;45.3;101950;;;;
2021/07/20 11:56:34;;;;;;;11.0;9.9;;;;;;;23.7;45.5;101950;;;;
2021/07/20 11:58:34;;;;;;;11.0;9.9;;;;;;;23.5;46.2;101940;;;;
2021/07/20 12:02:34;;;;;;;11.0;9.9;;;;;;;23.7;45.9;101940;;;;
2021/07/20 12:04:35;;;;;;;11.1;9.9;;;;;;;23.8;43.0;101940;;;;
2021/07/20 12:06:34;;;;;;;11.1;9.9;;;;;;;23.3;43.5;101940;;;;
2021/07/20 12:08:34;;;;;;;11.1;9.9;;;;;;;23.2;42.8;101940;;;;
2021/07/20 12:10:35;;;;;;;11.1;9.9;;;;;;;23.4;41.7;101940;;;;
2021/07/20 12:12:34;;;;;;;11.1;9.9;;;;;;;23.6;44.5;101940;;;;
2021/07/20 12:14:34;;;;;;;11.1;9.9;;;;;;;23.9;43.7;101940;;;;
2021/07/20 12:16:39;;;;;;;11.1;9.9;;;;;;;24.0;46.2;101930;;;;
2021/07/20 12:18:34;;;;;;;11.1;9.9;;;;;;;23.7;44.6;101930;;;;
2021/07/20 12:20:34;;;;;;;11.1;9.9;;;;;;;23.9;45.7;101930;;;;
2021/07/20 12:22:34;;;;;;;11.1;9.9;;;;;;;23.6;42.9;101930;;;;
2021/07/20 12:24:34;;;;;;;12.8;10.4;;;;;;;23.8;42.2;101930;;;;
2021/07/20 12:26:34;;;;;;;12.8;10.4;;;;;;;23.9;42.6;101930;;;;
2021/07/20 12:28:34;;;;;;;12.8;10.4;;;;;;;23.7;42.6;101930;;;;
2021/07/20 12:32:34;;;;;;;12.8;10.4;;;;;;;23.9;42.8;101920;;;;
2021/07/20 12:34:34;;;;;;;12.8;10.4;;;;;;;23.8;42.2;101920;;;;
2021/07/20 12:36:34;;;;;;;12.8;10.4;;;;;;;23.7;44.6;101920;;;;
2021/07/20 12:38:34;;;;;;;12.8;10.4;;;;;;;23.6;44.7;101920;;;;
2021/07/20 12:40:34;;;;;;;12.8;10.4;;;;;;;23.8;44.3;101920;;;;
2021/07/20 12:42:34;;;;;;;12.8;10.4;;;;;;;23.9;45.6;101920;;;;
2021/07/20 12:46:36;;;;;;;13.5;11.1;;;;;;;24.0;43.7;101930;;;;
2021/07/20 12:50:34;;;;;;;13.5;11.1;;;;;;;24.1;43.0;101930;;;;
2021/07/20 12:54:34;;;;;;;13.5;11.1;;;;;;;24.0;44.3;101920;;;;
2021/07/20 12:56:34;;;;;;;13.5;11.1;;;;;;;24.2;43.8;101920;;;;
2021/07/20 12:58:34;;;;;;;13.5;11.1;;;;;;;24.3;42.0;101930;;;;
2021/07/20 13:00:34;;;;;;;13.5;11.1;;;;;;;24.5;43.1;101930;;;;
2021/07/20 13:02:35;;;;;;;13.5;11.1;;;;;;;24.2;43.4;101930;;;;
2021/07/20 13:04:34;;;;;;;11.4;10.2;;;;;;;24.3;44.2;101920;;;;
2021/07/20 13:06:34;;;;;;;11.4;10.2;;;;;;;24.4;44.3;101930;;;;
2021/07/20 13:08:34;;;;;;;11.4;10.2;;;;;;;24.2;41.0;101920;;;;
2021/07/20 13:10:34;;;;;;;11.4;10.2;;;;;;;24.3;41.6;101920;;;;
2021/07/20 13:14:34;;;;;;;11.4;10.2;;;;;;;24.4;41.8;101920;;;;
2021/07/20 13:16:34;;;;;;;11.4;10.2;;;;;;;24.3;42.7;101920;;;;
2021/07/20 13:20:34;;;;;;;11.4;10.2;;;;;;;24.4;42.7;101920;;;;
2021/07/20 13:22:34;;;;;;;11.4;10.2;;;;;;;24.6;44.6;101920;;;;
2021/07/20 13:24:34;;;;;;;11.9;10.7;;;;;;;24.8;43.8;101920;;;;
2021/07/20 13:26:34;;;;;;;11.9;10.7;;;;;;;25.0;47.1;101920;;;;
2021/07/20 13:28:34;;;;;;;11.9;10.7;;;;;;;25.3;45.2;101920;;;;
2021/07/20 13:30:35;;;;;;;11.9;10.7;;;;;;;25.4;47.1;101910;;;;
2021/07/20 13:34:34;;;;;;;11.9;10.7;;;;;;;25.2;42.7;101920;;;;
2021/07/20 13:36:34;;;;;;;11.9;10.7;;;;;;;25.3;40.2;101910;;;;
2021/07/20 13:38:34;;;;;;;11.9;10.7;;;;;;;25.5;44.0;101910;;;;
2021/07/20 13:40:34;;;;;;;11.9;10.7;;;;;;;25.8;46.6;101910;;;;
2021/07/20 13:42:34;;;;;;;11.9;10.7;;;;;;;25.7;43.7;101910;;;;
2021/07/20 13:44:34;;;;;;;12.4;11.1;;;;;;;25.3;44.1;101910;;;;
2021/07/20 13:46:34;;;;;;;12.4;11.1;;;;;;;25.7;47.6;101910;;;;
2021/07/20 13:48:34;;;;;;;12.4;11.1;;;;;;;25.5;42.7;101910;;;;
2021/07/20 13:50:34;;;;;;;12.4;11.1;;;;;;;25.4;42.2;101920;;;;
2021/07/20 13:52:38;;;;;;;12.4;11.1;;;;;;;25.5;41.7;101920;;;;
2021/07/20 13:54:34;;;;;;;12.4;11.1;;;;;;;25.4;39.6;101920;;;;
2021/07/20 13:56:34;;;;;;;12.4;11.1;;;;;;;25.0;40.1;101920;;;;
2021/07/20 13:58:34;;;;;;;12.4;11.1;;;;;;;25.5;42.8;101920;;;;
2021/07/20 14:00:35;;;;;;;12.4;11.1;;;;;;;25.3;40.6;101920;;;;
2021/07/20 14:02:35;;;;;;;12.4;11.1;;;;;;;25.2;40.6;101920;;;;
2021/07/20 14:04:34;;;;;;;12.6;10.8;;;;;;;25.4;51.0;101910;;;;
2021/07/20 14:06:34;;;;;;;12.6;10.8;;;;;;;25.9;45.8;101900;;;;
2021/07/20 14:08:35;;;;;;;12.6;10.8;;;;;;;25.7;41.6;101910;;;;
2021/07/20 14:10:34;;;;;;;12.6;10.8;;;;;;;25.3;40.4;101910;;;;
2021/07/20 14:12:34;;;;;;;12.6;10.8;;;;;;;25.5;38.7;101900;;;;
2021/07/20 14:14:34;;;;;;;12.6;10.8;;;;;;;24.9;38.2;101900;;;;
2021/07/20 14:16:34;;;;;;;12.6;10.8;;;;;;;25.2;38.8;101910;;;;
2021/07/20 14:20:34;;;;;;;12.6;10.8;;;;;;;25.4;39.0;101900;;;;
2021/07/20 14:22:34;;;;;;;12.6;10.8;;;;;;;25.7;39.4;101900;;;;
2021/07/20 14:24:34;;;;;;;11.4;10.2;;;;;;;26.0;39.9;101890;;;;
2021/07/20 14:28:34;;;;;;;11.4;10.2;;;;;;;26.4;38.4;101900;;;;
2021/07/20 14:30:34;;;;;;;11.4;10.2;;;;;;;26.3;38.6;101900;;;;
2021/07/20 14:32:34;;;;;;;11.4;10.2;;;;;;;25.9;38.0;101900;;;;
2021/07/20 14:34:34;;;;;;;11.4;10.2;;;;;;;26.1;38.4;101890;;;;
2021/07/20 14:38:34;;;;;;;11.4;10.2;;;;;;;26.3;37.8;101890;;;;
2021/07/20 14:40:34;;;;;;;11.4;10.2;;;;;;;26.9;37.3;101890;;;;
2021/07/20 14:42:35;;;;;;;11.4;10.2;;;;;;;26.8;36.9;101900;;;;
2021/07/20 14:44:34;;;;;;;12.6;11.0;;;;;;;27.1;37.4;101900;;;;
2021/07/20 14:46:38;;;;;;;12.6;11.0;;;;;;;27.2;37.4;101900;;;;
2021/07/20 14:46:52;;;;;;;12.6;11.0;;;;;;;27.2;34.8;101900;;;;
2021/07/20 14:48:34;;;;;;;12.6;11.0;;;;;;;26.7;35.9;101900;;;;
2021/07/20 14:50:34;;;;;;;12.6;11.0;;;;;;;26.8;36.3;101900;;;;
2021/07/20 14:52:34;;;;;;;12.6;11.0;;;;;;;27.3;36.8;101900;;;;
2021/07/20 14:54:34;;;;;;;12.6;11.0;;;;;;;27.6;36.8;101900;;;;
2021/07/20 14:56:34;;;;;;;12.6;11.0;;;;;;;28.2;36.8;101890;;;;
2021/07/20 14:58:37;;;;;;;12.6;11.0;;;;;;;28.6;36.8;101890;;;;
2021/07/20 15:00:34;;;;;;;12.6;11.0;;;;;;;28.4;35.2;101890;;;;
2021/07/20 15:04:34;;;;;;;13.0;11.6;;;;;;;28.0;36.3;101890;;;;
2021/07/20 15:06:35;;;;;;;13.0;11.6;;;;;;;28.2;34.8;101890;;;;
2021/07/20 15:08:34;;;;;;;13.0;11.6;;;;;;;28.3;35.6;101880;;;;
2021/07/20 15:12:34;;;;;;;13.0;11.6;;;;;;;28.5;34.7;101880;;;;
2021/07/20 15:14:36;;;;;;;13.0;11.6;;;;;;;28.7;40.3;101880;;;;
2021/07/20 15:16:34;;;;;;;13.0;11.6;;;;;;;29.3;34.9;101880;;;;
2021/07/20 15:18:34;;;;;;;13.0;11.6;;;;;;;28.7;35.0;101880;;;;
2021/07/20 15:20:35;;;;;;;13.0;11.6;;;;;;;29.0;35.2;101880;;;;
2021/07/20 15:22:34;;;;;;;13.0;11.6;;;;;;;29.1;34.7;101880;;;;
2021/07/20 15:24:35;;;;;;;13.5;11.6;;;;;;;28.9;33.8;101880;;;;
2021/07/20 15:26:34;;;;;;;13.5;11.6;;;;;;;28.7;36.7;101880;;;;
2021/07/20 15:28:34;;;;;;;13.5;11.6;;;;;;;29.1;36.2;101880;;;;
2021/07/20 15:30:36;;;;;;;13.5;11.6;;;;;;;28.5;34.2;101880;;;;
2021/07/20 15:32:35;;;;;;;13.5;11.6;;;;;;;28.2;34.8;101870;;;;
2021/07/20 15:34:34;;;;;;;13.5;11.6;;;;;;;28.6;33.6;101870;;;;
2021/07/20 15:36:34;;;;;;;13.5;11.6;;;;;;;28.8;36.8;101870;;;;
2021/07/20 15:38:34;;;;;;;13.5;11.6;;;;;;;28.5;34.7;101880;;;;
2021/07/20 15:40:34;;;;;;;13.5;11.6;;;;;;;28.8;32.6;101880;;;;
2021/07/20 15:42:35;;;;;;;13.5;11.6;;;;;;;29.5;38.7;101870;;;;
2021/07/20 15:44:34;;;;;;;12.6;11.4;;;;;;;29.2;32.6;101880;;;;
2021/07/20 15:46:34;;;;;;;12.6;11.4;;;;;;;29.5;33.7;101870;;;;
2021/07/20 15:48:34;;;;;;;12.6;11.4;;;;;;;29.7;32.8;101870;;;;
2021/07/20 15:50:35;;;;;;;12.6;11.4;;;;;;;29.5;33.7;101870;;;;
2021/07/20 15:54:34;;;;;;;12.6;11.4;;;;;;;30.0;34.8;101870;;;;
2021/07/20 15:56:34;;;;;;;12.6;11.4;;;;;;;29.9;34.8;101870;;;;
2021/07/20 15:58:34;;;;;;;12.6;11.4;;;;;;;29.7;32.8;101870;;;;
2021/07/20 16:00:35;;;;;;;12.6;11.4;;;;;;;29.5;33.6;101880;;;;
2021/07/20 16:04:35;;;;;;;12.2;10.6;;;;;;;29.8;33.6;101880;;;;
2021/07/20 16:06:35;;;;;;;12.2;10.6;;;;;;;30.2;32.1;101880;;;;
2021/07/20 16:08:34;;;;;;;12.2;10.6;;;;;;;30.0;31.2;101870;;;;
2021/07/20 16:10:35;;;;;;;12.2;10.6;;;;;;;30.5;34.6;101880;;;;
2021/07/20 16:12:34;;;;;;;12.2;10.6;;;;;;;30.6;29.9;101870;;;;
2021/07/20 16:14:34;;;;;;;12.2;10.6;;;;;;;29.5;30.9;101870;;;;
2021/07/20 16:16:34;;;;;;;12.2;10.6;;;;;;;29.8;32.6;101870;;;;
2021/07/20 16:18:34;;;;;;;12.2;10.6;;;;;;;30.0;30.6;101870;;;;
2021/07/20 16:20:34;;;;;;;12.2;10.6;;;;;;;29.9;31.5;101870;;;;
2021/07/20 16:22:34;;;;;;;12.2;10.6;;;;;;;29.7;30.7;101870;;;;
2021/07/20 16:24:34;;;;;;;11.9;10.7;;;;;;;30.0;31.8;101870;;;;
2021/07/20 16:26:34;;;;;;;11.9;10.7;;;;;;;29.5;33.1;101870;;;;
2021/07/20 16:28:34;;;;;;;11.9;10.7;;;;;;;28.6;32.6;101880;;;;
2021/07/20 16:30:34;;;;;;;11.9;10.7;;;;;;;29.1;32.7;101880;;;;
2021/07/20 16:32:34;;;;;;;11.9;10.7;;;;;;;29.6;32.4;101880;;;;
2021/07/20 16:34:34;;;;;;;11.9;10.7;;;;;;;30.3;34.0;101870;;;;
2021/07/20 16:36:34;;;;;;;11.9;10.7;;;;;;;30.0;33.1;101870;;;;
2021/07/20 16:38:34;;;;;;;11.9;10.7;;;;;;;29.9;30.4;101870;;;;
2021/07/20 16:40:34;;;;;;;11.9;10.7;;;;;;;30.0;30.2;101870;;;;
2021/07/20 16:42:34;;;;;;;11.9;10.7;;;;;;;29.4;31.2;101870;;;;
2021/07/20 16:44:34;;;;;;;10.1;9.0;;;;;;;29.9;30.4;101860;;;;
2021/07/20 16:48:34;;;;;;;10.1;9.0;;;;;;;30.2;31.1;101870;;;;
2021/07/20 16:50:34;;;;;;;10.1;9.0;;;;;;;29.8;30.7;101870;;;;
2021/07/20 16:52:39;;;;;;;10.1;9.0;;;;;;;30.1;31.5;101870;;;;
2021/07/20 16:54:35;;;;;;;10.1;9.0;;;;;;;30.0;30.3;101870;;;;
2021/07/20 16:56:35;;;;;;;10.1;9.0;;;;;;;29.8;30.8;101870;;;;
2021/07/20 16:58:34;;;;;;;10.1;9.0;;;;;;;29.7;31.2;101860;;;;
2021/07/20 17:00:35;;;;;;;10.1;9.0;;;;;;;29.4;30.2;101860;;;;
2021/07/20 17:04:34;;;;;;;10.1;9.1;;;;;;;29.2;30.3;101870;;;;
2021/07/20 17:06:34;;;;;;;10.1;9.1;;;;;;;29.0;31.5;101870;;;;
2021/07/20 17:08:34;;;;;;;10.1;9.1;;;;;;;28.9;31.3;101870;;;;
2021/07/20 17:10:34;;;;;;;10.1;9.1;;;;;;;29.1;30.5;101870;;;;
2021/07/20 17:12:34;;;;;;;10.1;9.1;;;;;;;28.6;30.7;101870;;;;
2021/07/20 17:14:34;;;;;;;10.1;9.1;;;;;;;29.0;30.2;101870;;;;
2021/07/20 17:16:37;;;;;;;10.1;9.1;;;;;;;29.1;30.5;101870;;;;
2021/07/20 17:18:35;;;;;;;10.1;9.1;;;;;;;29.2;30.5;101870;;;;
2021/07/20 17:20:34;;;;;;;10.1;9.1;;;;;;;29.5;30.2;101860;;;;
2021/07/20 17:22:34;;;;;;;10.1;9.1;;;;;;;29.7;29.9;101870;;;;
2021/07/20 17:24:34;;;;;;;10.0;8.3;;;;;;;28.9;30.1;101880;;;;
2021/07/20 17:26:35;;;;;;;10.0;8.3;;;;;;;28.6;30.6;101880;;;;
2021/07/20 17:30:34;;;;;;;10.0;8.3;;;;;;;28.9;30.0;101880;;;;